Time;durP1;ratioP1;P1;durP2;ratioP2;P2;SDS_P1;SDS_P2;PMS_P1;PMS_P2;Temp;Humidity;BMP_temperature;BMP_pressure;BME280_temperature;BME280_humidity;BME280_pressure;Samples;Min_cycle;Max_cycle;Signal;HPM_P1;HPM_P2
2022/08/19 00:02:02;;;;;;;9.18;2.30;;;;;;;;;;4993459;28;20033;-55
2022/08/19 00:04:31;;;;;;;13.30;2.20;;;;;;;;;;4993107;28;20499;-51
2022/08/19 00:06:58;;;;;;;12.77;2.53;;;;;;;;;;4993245;28;20542;-50
2022/08/19 00:09:26;;;;;;;12.27;2.10;;;;;;;;;;4993048;28;20026;-53
2022/08/19 00:11:55;;;;;;;15.32;1.90;;;;;;;;;;4992746;28;20039;-51
2022/08/19 00:14:22;;;;;;;11.57;1.98;;;;;;;;;;4993181;28;20062;-50
2022/08/19 00:16:51;;;;;;;16.00;2.10;;;;;;;;;;4992959;28;20043;-55
2022/08/19 00:19:18;;;;;;;17.92;2.70;;;;;;;;;;4992975;28;20061;-51
2022/08/19 00:21:45;;;;;;;11.48;1.90;;;;;;;;;;4990298;28;20451;-52
2022/08/19 00:24:14;;;;;;;19.50;2.47;;;;;;;;;;4991964;28;20022;-54
2022/08/19 00:26:41;;;;;;;18.00;2.05;;;;;;;;;;4989359;28;20125;-58
2022/08/19 00:29:09;;;;;;;16.50;2.22;;;;;;;;;;4991623;28;20033;-52
2022/08/19 00:31:36;;;;;;;15.60;2.25;;;;;;;;;;4990786;28;20030;-56
2022/08/19 00:34:04;;;;;;;14.07;2.47;;;;;;;;;;4992019;28;20625;-58
2022/08/19 00:36:32;;;;;;;17.48;2.08;;;;;;;;;;4991698;28;20042;-51
2022/08/19 00:38:59;;;;;;;11.23;2.05;;;;;;;;;;4990376;28;20026;-52
2022/08/19 00:41:26;;;;;;;11.30;2.28;;;;;;;;;;4991444;28;20114;-62
2022/08/19 00:44:00;;;;;;;9.75;1.90;;;;;;;;;;4989857;28;20030;-53
2022/08/19 00:46:27;;;;;;;13.00;2.35;;;;;;;;;;4987908;28;20117;-55
2022/08/19 00:48:56;;;;;;;9.50;2.00;;;;;;;;;;4990634;28;20037;-50
2022/08/19 00:51:26;;;;;;;15.77;2.10;;;;;;;;;;4972983;28;20034;-57
2022/08/19 00:53:53;;;;;;;8.15;2.03;;;;;;;;;;4990031;28;20118;-51
2022/08/19 00:56:20;;;;;;;10.73;2.50;;;;;;;;;;4990081;28;20743;-54
2022/08/19 00:58:47;;;;;;;11.75;2.22;;;;;;;;;;4988179;28;20562;-53
2022/08/19 01:01:14;;;;;;;11.65;2.42;;;;;;;;;;4991535;28;20038;-55
2022/08/19 01:03:41;;;;;;;9.35;2.28;;;;;;;;;;4992583;28;20440;-52
2022/08/19 01:06:08;;;;;;;20.40;2.85;;;;;;;;;;4975218;28;20396;-52
2022/08/19 01:08:35;;;;;;;19.25;3.10;;;;;;;;;;4991171;28;20026;-57
2022/08/19 01:11:02;;;;;;;18.55;2.42;;;;;;;;;;4990626;28;20046;-49
2022/08/19 01:13:31;;;;;;;13.38;2.75;;;;;;;;;;4974195;28;20061;-54
2022/08/19 01:16:18;;;;;;;24.13;3.50;;;;;;;;;;4992536;28;20034;-51
2022/08/19 01:18:45;;;;;;;21.90;4.32;;;;;;;;;;4994813;28;20038;-55
2022/08/19 01:21:32;;;;;;;28.48;5.97;;;;;;;;;;4995203;28;20030;-52
2022/08/19 01:23:59;;;;;;;49.33;11.02;;;;;;;;;;4996344;28;20038;-51
2022/08/19 01:26:26;;;;;;;57.85;16.88;;;;;;;;;;4996153;28;20385;-52
2022/08/19 01:28:55;;;;;;;58.00;16.95;;;;;;;;;;4995869;28;20042;-55
2022/08/19 01:31:23;;;;;;;68.80;19.42;;;;;;;;;;4996267;28;20485;-55
2022/08/19 01:33:52;;;;;;;62.55;20.30;;;;;;;;;;4996530;28;20034;-54
2022/08/19 01:36:27;;;;;;;63.13;18.48;;;;;;;;;;4996250;28;20121;-54
2022/08/19 01:38:54;;;;;;;58.58;17.58;;;;;;;;;;4996060;28;20084;-53
2022/08/19 01:41:21;;;;;;;52.25;17.38;;;;;;;;;;4996193;28;20492;-53
2022/08/19 01:43:49;;;;;;;51.22;16.20;;;;;;;;;;4996269;28;20026;-51
2022/08/19 01:46:16;;;;;;;51.20;15.38;;;;;;;;;;4995570;28;20499;-55
2022/08/19 01:48:44;;;;;;;51.97;15.32;;;;;;;;;;4994516;28;20030;-50
2022/08/19 01:51:11;;;;;;;41.75;15.25;;;;;;;;;;4995244;28;20022;-51
2022/08/19 01:53:39;;;;;;;43.88;14.60;;;;;;;;;;4995118;28;20476;-54
2022/08/19 01:56:06;;;;;;;39.72;14.25;;;;;;;;;;4995657;28;20450;-52
2022/08/19 01:58:37;;;;;;;41.17;14.00;;;;;;;;;;4995939;28;20150;-54
2022/08/19 02:01:05;;;;;;;43.95;13.45;;;;;;;;;;4995743;28;20081;-57
2022/08/19 02:03:32;;;;;;;40.20;13.00;;;;;;;;;;4995951;28;20499;-54
2022/08/19 02:06:01;;;;;;;42.25;12.15;;;;;;;;;;4994077;28;20041;-51
2022/08/19 02:08:28;;;;;;;38.03;12.85;;;;;;;;;;4993160;28;20495;-52
2022/08/19 02:10:55;;;;;;;34.53;11.80;;;;;;;;;;4994829;28;20157;-53
2022/08/19 02:13:23;;;;;;;39.35;13.00;;;;;;;;;;4995491;28;20038;-55
2022/08/19 02:15:50;;;;;;;36.13;10.90;;;;;;;;;;4995610;28;20030;-52
2022/08/19 02:18:17;;;;;;;32.08;10.68;;;;;;;;;;4986337;28;20034;-51
2022/08/19 02:20:46;;;;;;;33.25;10.88;;;;;;;;;;4995372;28;20089;-53
2022/08/19 02:23:14;;;;;;;34.58;11.23;;;;;;;;;;4995316;28;20042;-53
2022/08/19 02:25:41;;;;;;;38.03;10.70;;;;;;;;;;4994703;28;20492;-55
2022/08/19 02:28:08;;;;;;;37.50;10.90;;;;;;;;;;4994395;28;20022;-53
2022/08/19 02:30:35;;;;;;;33.47;10.23;;;;;;;;;;4994827;28;20053;-54
2022/08/19 02:33:02;;;;;;;31.85;10.68;;;;;;;;;;4993805;28;20029;-51
2022/08/19 02:35:29;;;;;;;32.55;10.07;;;;;;;;;;4992914;28;20535;-53
2022/08/19 02:40:49;;;;;;;30.20;9.25;;;;;;;;;;4992876;28;20048;-53
2022/08/19 02:43:16;;;;;;;31.45;9.75;;;;;;;;;;4992948;28;20038;-54
2022/08/19 02:45:43;;;;;;;28.23;9.80;;;;;;;;;;4968020;28;20065;-52
2022/08/19 02:48:10;;;;;;;31.55;9.35;;;;;;;;;;4993189;28;20029;-55
2022/08/19 02:50:40;;;;;;;29.45;9.23;;;;;;;;;;4994012;28;20038;-52
2022/08/19 02:53:08;;;;;;;25.55;8.75;;;;;;;;;;4993231;28;20026;-54
2022/08/19 02:55:35;;;;;;;28.17;8.88;;;;;;;;;;4993640;28;20042;-52
2022/08/19 02:58:02;;;;;;;24.50;8.65;;;;;;;;;;4992420;28;20455;-55
2022/08/19 03:00:29;;;;;;;33.80;9.50;;;;;;;;;;4992826;28;20036;-51
2022/08/19 03:02:56;;;;;;;24.60;8.32;;;;;;;;;;4993111;28;20026;-55
2022/08/19 03:05:23;;;;;;;24.52;8.07;;;;;;;;;;4994977;28;20038;-52
2022/08/19 03:07:50;;;;;;;24.58;8.35;;;;;;;;;;4994764;28;20033;-53
2022/08/19 03:10:17;;;;;;;19.85;7.38;;;;;;;;;;4995080;28;20428;-55
2022/08/19 03:12:45;;;;;;;26.48;7.45;;;;;;;;;;4995003;28;20088;-48
2022/08/19 03:15:13;;;;;;;21.92;8.18;;;;;;;;;;4994746;28;20045;-54
2022/08/19 03:17:40;;;;;;;24.20;8.10;;;;;;;;;;4994536;28;20053;-54
2022/08/19 03:20:07;;;;;;;18.13;7.72;;;;;;;;;;4994767;28;20472;-51
2022/08/19 03:22:34;;;;;;;19.17;6.95;;;;;;;;;;4994619;28;20505;-51
2022/08/19 03:25:01;;;;;;;25.13;7.18;;;;;;;;;;4994658;28;20022;-53
2022/08/19 03:27:29;;;;;;;21.10;6.75;;;;;;;;;;4994676;28;20149;-54
2022/08/19 03:29:56;;;;;;;20.02;6.57;;;;;;;;;;4994588;28;20437;-52
2022/08/19 03:32:23;;;;;;;23.67;7.18;;;;;;;;;;4994415;28;20039;-55
2022/08/19 03:34:50;;;;;;;21.50;6.82;;;;;;;;;;4994672;28;20030;-52
2022/08/19 03:37:17;;;;;;;24.13;7.18;;;;;;;;;;4994345;28;20038;-51
2022/08/19 03:39:44;;;;;;;19.05;6.75;;;;;;;;;;4993738;28;20030;-51
2022/08/19 03:42:12;;;;;;;22.02;7.15;;;;;;;;;;4994690;28;20058;-55
2022/08/19 03:44:39;;;;;;;12.52;5.55;;;;;;;;;;4994318;28;20106;-53
2022/08/19 03:47:06;;;;;;;18.73;6.75;;;;;;;;;;4994254;28;20085;-54
2022/08/19 03:49:35;;;;;;;18.70;6.13;;;;;;;;;;4994327;28;20061;-52
2022/08/19 03:52:02;;;;;;;17.67;6.18;;;;;;;;;;4994137;28;20109;-53
2022/08/19 03:54:29;;;;;;;14.98;6.03;;;;;;;;;;4994311;28;20058;-53
2022/08/19 03:56:57;;;;;;;14.43;5.90;;;;;;;;;;4993943;28;20034;-53
2022/08/19 03:59:26;;;;;;;15.27;5.35;;;;;;;;;;4993902;28;20035;-52
2022/08/19 04:01:54;;;;;;;13.55;5.55;;;;;;;;;;4994088;28;20037;-53
2022/08/19 04:04:21;;;;;;;15.88;5.85;;;;;;;;;;4994044;28;20027;-53
2022/08/19 04:06:49;;;;;;;15.50;5.43;;;;;;;;;;4993847;28;20034;-55
2022/08/19 04:09:16;;;;;;;12.85;4.93;;;;;;;;;;4993767;28;20057;-50
2022/08/19 04:11:45;;;;;;;14.35;5.15;;;;;;;;;;4993785;28;20046;-54
2022/08/19 04:14:13;;;;;;;14.20;5.18;;;;;;;;;;4993967;28;20046;-54
2022/08/19 04:16:40;;;;;;;11.43;3.95;;;;;;;;;;4993798;28;20042;-53
2022/08/19 04:19:07;;;;;;;14.20;5.35;;;;;;;;;;4993854;28;20065;-54
2022/08/19 04:21:35;;;;;;;14.20;5.18;;;;;;;;;;4993779;28;20026;-55
2022/08/19 04:24:02;;;;;;;14.75;5.10;;;;;;;;;;4993776;28;20033;-52
2022/08/19 04:26:33;;;;;;;17.17;4.97;;;;;;;;;;4993710;28;20432;-54
2022/08/19 04:29:01;;;;;;;14.52;4.65;;;;;;;;;;4993658;28;20026;-55
2022/08/19 04:31:36;;;;;;;10.63;4.60;;;;;;;;;;4993732;28;20030;-54
2022/08/19 04:34:05;;;;;;;8.57;4.10;;;;;;;;;;4993483;28;20056;-53
2022/08/19 04:36:34;;;;;;;12.90;4.85;;;;;;;;;;4993450;28;20076;-54
2022/08/19 04:39:03;;;;;;;10.35;4.35;;;;;;;;;;4993501;28;20022;-56
2022/08/19 04:44:17;;;;;;;9.10;3.90;;;;;;;;;;4993486;28;20049;-53
2022/08/19 04:46:45;;;;;;;12.13;4.18;;;;;;;;;;4993292;28;20038;-55
2022/08/19 04:49:12;;;;;;;9.63;3.88;;;;;;;;;;4993340;28;20046;-55
2022/08/19 04:51:42;;;;;;;9.45;3.83;;;;;;;;;;4993236;28;20170;-55
2022/08/19 04:54:09;;;;;;;9.90;3.85;;;;;;;;;;4993174;28;20485;-51
2022/08/19 04:56:36;;;;;;;7.93;3.80;;;;;;;;;;4993256;28;20396;-55
2022/08/19 04:59:04;;;;;;;6.97;2.90;;;;;;;;;;4993294;28;20039;-53
2022/08/19 05:01:36;;;;;;;9.40;3.80;;;;;;;;;;4993104;28;20138;-55
2022/08/19 05:04:04;;;;;;;9.40;3.58;;;;;;;;;;4993132;28;20035;-53
2022/08/19 05:06:35;;;;;;;10.15;3.80;;;;;;;;;;4993207;28;20046;-54
2022/08/19 05:09:03;;;;;;;7.13;3.33;;;;;;;;;;4992785;28;20366;-55
2022/08/19 05:11:31;;;;;;;9.63;3.38;;;;;;;;;;4993015;28;20784;-52
2022/08/19 05:13:58;;;;;;;9.55;3.55;;;;;;;;;;4993183;28;20433;-52
2022/08/19 05:16:26;;;;;;;10.20;3.58;;;;;;;;;;4993090;28;20030;-54
2022/08/19 05:24:32;;;;;;;6.93;3.28;;;;;;;;;;4956316;28;20048;-54
2022/08/19 05:26:59;;;;;;;7.47;3.33;;;;;;;;;;4992933;28;20409;-56
2022/08/19 05:29:27;;;;;;;11.05;3.53;;;;;;;;;;4993130;28;20031;-53
2022/08/19 05:31:54;;;;;;;5.32;2.67;;;;;;;;;;4992940;28;20371;-54
2022/08/19 05:34:24;;;;;;;9.02;3.20;;;;;;;;;;4993070;28;20069;-54
2022/08/19 05:36:56;;;;;;;6.88;2.85;;;;;;;;;;4992806;28;20038;-54
2022/08/19 05:39:23;;;;;;;;;;;;;;;;;;4993056;28;20084;-55
2022/08/19 05:41:56;;;;;;;8.80;3.03;;;;;;;;;;4993113;28;20249;-53
2022/08/19 05:44:24;;;;;;;7.30;2.90;;;;;;;;;;4992772;28;20038;-53
2022/08/19 05:46:54;;;;;;;7.60;3.05;;;;;;;;;;4992791;28;20045;-54
2022/08/19 05:49:24;;;;;;;5.63;2.63;;;;;;;;;;4992672;28;20061;-51
2022/08/19 05:51:51;;;;;;;6.53;2.80;;;;;;;;;;4993021;28;20385;-54
2022/08/19 05:54:19;;;;;;;6.78;2.75;;;;;;;;;;4992839;28;20497;-53
2022/08/19 05:56:47;;;;;;;4.13;2.08;;;;;;;;;;4992771;28;20038;-57
2022/08/19 05:59:15;;;;;;;6.55;2.33;;;;;;;;;;4992496;28;20034;-52
2022/08/19 06:01:44;;;;;;;6.57;2.50;;;;;;;;;;4998326;28;20487;-56
2022/08/19 06:04:13;;;;;;;5.30;2.40;;;;;;;;;;5014805;28;20101;-53
2022/08/19 06:06:40;;;;;;;5.25;2.30;;;;;;;;;;5015752;28;20038;-51
2022/08/19 06:09:07;;;;;;;8.23;3.20;;;;;;;;;;5015490;28;20022;-52
2022/08/19 06:11:37;;;;;;;5.13;2.30;;;;;;;;;;5015596;28;20046;-53
2022/08/19 06:14:07;;;;;;;4.28;2.10;;;;;;;;;;5015571;28;20037;-53
2022/08/19 06:16:35;;;;;;;4.95;1.95;;;;;;;;;;5015523;28;20046;-55
2022/08/19 06:19:06;;;;;;;3.55;1.95;;;;;;;;;;5015633;28;20026;-55
2022/08/19 06:21:33;;;;;;;6.68;2.40;;;;;;;;;;5015520;28;20113;-55
2022/08/19 06:24:00;;;;;;;4.38;2.10;;;;;;;;;;5015405;28;20057;-52
2022/08/19 06:26:28;;;;;;;3.70;1.85;;;;;;;;;;5015149;28;20112;-49
2022/08/19 06:28:55;;;;;;;3.95;1.70;;;;;;;;;;5015259;28;20029;-53
2022/08/19 06:31:26;;;;;;;4.43;2.10;;;;;;;;;;5015421;28;20022;-54
2022/08/19 06:33:53;;;;;;;4.35;2.00;;;;;;;;;;5015179;28;20037;-53
2022/08/19 06:36:29;;;;;;;3.90;1.95;;;;;;;;;;5015164;28;20073;-54
2022/08/19 06:38:57;;;;;;;4.82;1.90;;;;;;;;;;5015069;28;20041;-50
2022/08/19 06:41:25;;;;;;;3.92;1.80;;;;;;;;;;5015252;28;20586;-53
2022/08/19 06:43:52;;;;;;;4.28;1.67;;;;;;;;;;5015147;28;20030;-50
2022/08/19 06:46:19;;;;;;;3.42;1.52;;;;;;;;;;5015164;28;20033;-55
2022/08/19 06:48:46;;;;;;;3.58;2.08;;;;;;;;;;5014850;28;20109;-50
2022/08/19 06:51:20;;;;;;;3.10;1.67;;;;;;;;;;5015159;28;20395;-51
2022/08/19 06:53:48;;;;;;;3.72;1.63;;;;;;;;;;5015025;28;20041;-49
2022/08/19 06:56:16;;;;;;;4.63;2.00;;;;;;;;;;5014843;28;20041;-52
2022/08/19 06:58:43;;;;;;;3.97;1.95;;;;;;;;;;5014686;28;20029;-53
2022/08/19 07:01:11;;;;;;;3.75;1.73;;;;;;;;;;5014891;28;20030;-50
2022/08/19 07:03:39;;;;;;;3.63;1.70;;;;;;;;;;5014672;28;20025;-51
2022/08/19 07:06:08;;;;;;;3.38;1.60;;;;;;;;;;5014634;28;20176;-49
2022/08/19 07:08:36;;;;;;;2.97;1.50;;;;;;;;;;5014506;28;20038;-55
2022/08/19 07:11:06;;;;;;;4.10;1.55;;;;;;;;;;5014191;28;20056;-54
2022/08/19 07:13:36;;;;;;;2.15;1.27;;;;;;;;;;5014302;28;20113;-52
2022/08/19 07:16:06;;;;;;;2.95;1.65;;;;;;;;;;5013497;28;20044;-50
2022/08/19 07:18:33;;;;;;;4.22;1.70;;;;;;;;;;5014419;28;20487;-53
2022/08/19 07:21:08;;;;;;;3.00;1.60;;;;;;;;;;5014272;28;20034;-53
2022/08/19 07:23:35;;;;;;;3.97;1.50;;;;;;;;;;5014405;28;20018;-50
2022/08/19 07:26:09;;;;;;;3.63;1.60;;;;;;;;;;5014611;28;20030;-53
2022/08/19 07:28:38;;;;;;;2.70;1.40;;;;;;;;;;5014287;28;20488;-50
2022/08/19 07:31:07;;;;;;;2.40;1.10;;;;;;;;;;5014235;28;20073;-51
2022/08/19 07:33:36;;;;;;;3.03;1.25;;;;;;;;;;5014245;28;20022;-52
2022/08/19 07:36:07;;;;;;;2.75;1.02;;;;;;;;;;5014220;28;20038;-51
2022/08/19 07:38:34;;;;;;;2.38;1.10;;;;;;;;;;5014066;28;20108;-53
2022/08/19 07:41:02;;;;;;;2.50;1.30;;;;;;;;;;5014158;28;20025;-53
2022/08/19 07:43:29;;;;;;;2.97;1.30;;;;;;;;;;5014000;28;20033;-54
2022/08/19 07:45:56;;;;;;;1.83;1.20;;;;;;;;;;5013847;28;20745;-54
2022/08/19 07:48:25;;;;;;;2.60;1.30;;;;;;;;;;5013661;28;20035;-49
2022/08/19 07:51:01;;;;;;;2.03;1.05;;;;;;;;;;5013845;28;20045;-49
2022/08/19 07:53:29;;;;;;;3.05;1.17;;;;;;;;;;5013809;28;20081;-52
2022/08/19 07:56:03;;;;;;;3.03;1.23;;;;;;;;;;5013752;28;20113;-52
2022/08/19 07:58:37;;;;;;;2.72;1.08;;;;;;;;;;5013522;28;20399;-51
2022/08/19 08:01:05;;;;;;;3.38;1.30;;;;;;;;;;5013576;28;20104;-52
2022/08/19 08:11:41;;;;;;;2.30;1.15;;;;;;;;;;5013488;28;20065;-51
2022/08/19 08:14:09;;;;;;;2.20;1.00;;;;;;;;;;5013557;28;20058;-52
2022/08/19 08:16:37;;;;;;;1.33;0.90;;;;;;;;;;5013197;28;20041;-51
2022/08/19 08:19:07;;;;;;;2.00;1.00;;;;;;;;;;5013367;28;20068;-51
2022/08/19 08:21:34;;;;;;;1.38;0.90;;;;;;;;;;5013473;28;20519;-49
2022/08/19 08:24:01;;;;;;;3.50;1.00;;;;;;;;;;5013592;28;20038;-51
2022/08/19 08:26:28;;;;;;;1.90;0.90;;;;;;;;;;5013082;28;20535;-52
2022/08/19 08:28:56;;;;;;;1.70;1.00;;;;;;;;;;5013035;28;20091;-51
2022/08/19 08:31:23;;;;;;;2.00;1.10;;;;;;;;;;5013067;28;20037;-49
2022/08/19 08:33:50;;;;;;;1.67;0.80;;;;;;;;;;5013513;28;20030;-51
2022/08/19 08:36:17;;;;;;;2.58;1.10;;;;;;;;;;5012968;28;20068;-49
2022/08/19 08:38:45;;;;;;;1.27;0.80;;;;;;;;;;5012930;28;20104;-50
2022/08/19 08:41:19;;;;;;;1.42;0.80;;;;;;;;;;5012955;28;20040;-50
2022/08/19 08:43:47;;;;;;;1.80;0.88;;;;;;;;;;5012894;28;20056;-52
2022/08/19 08:46:17;;;;;;;1.67;0.77;;;;;;;;;;5013108;28;20476;-49
2022/08/19 08:48:53;;;;;;;1.48;0.90;;;;;;;;;;5012753;28;20092;-50
2022/08/19 08:51:26;;;;;;;3.38;1.20;;;;;;;;;;5012894;28;20033;-49
2022/08/19 08:54:04;;;;;;;2.15;0.70;;;;;;;;;;5012920;28;20034;-50
2022/08/19 08:56:31;;;;;;;1.60;1.00;;;;;;;;;;5012760;28;20029;-52
2022/08/19 08:59:09;;;;;;;2.42;0.90;;;;;;;;;;5012807;28;20025;-51
2022/08/19 09:01:36;;;;;;;1.42;0.82;;;;;;;;;;5012711;28;20034;-51
2022/08/19 09:04:06;;;;;;;1.88;0.90;;;;;;;;;;5012912;28;20048;-51
2022/08/19 09:06:33;;;;;;;1.38;0.80;;;;;;;;;;5012925;28;20038;-54
2022/08/19 09:09:01;;;;;;;1.30;0.77;;;;;;;;;;5012655;28;20484;-51
2022/08/19 09:11:37;;;;;;;1.42;0.77;;;;;;;;;;5012470;28;20054;-52
2022/08/19 09:14:24;;;;;;;1.10;0.73;;;;;;;;;;5012866;28;20502;-50
2022/08/19 09:16:51;;;;;;;1.23;0.68;;;;;;;;;;5012709;28;20030;-53
2022/08/19 09:19:18;;;;;;;1.05;0.70;;;;;;;;;;5012757;28;20071;-54
2022/08/19 09:21:45;;;;;;;1.30;0.70;;;;;;;;;;5012608;28;20144;-50
2022/08/19 09:24:12;;;;;;;1.50;0.82;;;;;;;;;;5012724;28;20024;-53
2022/08/19 09:26:39;;;;;;;2.35;0.90;;;;;;;;;;5012635;28;20045;-52
2022/08/19 09:29:07;;;;;;;2.13;0.93;;;;;;;;;;5012610;28;20557;-53
2022/08/19 09:31:34;;;;;;;1.63;0.80;;;;;;;;;;5012448;28;20045;-52
2022/08/19 09:34:03;;;;;;;1.23;0.73;;;;;;;;;;5012656;28;20097;-51
2022/08/19 09:36:32;;;;;;;1.77;0.90;;;;;;;;;;5012363;28;20113;-51
2022/08/19 09:39:00;;;;;;;1.77;0.90;;;;;;;;;;5015036;28;20049;-53
2022/08/19 09:41:27;;;;;;;2.00;0.90;;;;;;;;;;5016265;28;20034;-53
2022/08/19 09:43:56;;;;;;;1.98;0.98;;;;;;;;;;5016168;28;20038;-54
2022/08/19 09:46:24;;;;;;;1.92;0.98;;;;;;;;;;5016178;28;20034;-54
2022/08/19 09:48:51;;;;;;;1.52;1.00;;;;;;;;;;5016015;28;20030;-54
2022/08/19 09:51:26;;;;;;;1.20;0.82;;;;;;;;;;5016138;28;20034;-50
2022/08/19 09:53:56;;;;;;;1.50;0.90;;;;;;;;;;5015960;28;20456;-53
2022/08/19 09:56:23;;;;;;;1.20;0.80;;;;;;;;;;5015680;28;20526;-52
2022/08/19 09:58:51;;;;;;;0.85;0.70;;;;;;;;;;5010170;28;20041;-54
2022/08/19 10:01:22;;;;;;;2.08;1.02;;;;;;;;;;4996126;28;20109;-50
2022/08/19 10:03:51;;;;;;;1.75;1.02;;;;;;;;;;4996269;28;20433;-51
2022/08/19 10:06:18;;;;;;;2.53;1.17;;;;;;;;;;4995723;28;20060;-54
2022/08/19 10:08:46;;;;;;;1.90;1.10;;;;;;;;;;4995372;28;20030;-56
2022/08/19 10:11:15;;;;;;;6.53;1.95;;;;;;;;;;4992899;28;20133;-50
2022/08/19 10:13:43;;;;;;;4.70;1.80;;;;;;;;;;4995513;28;20388;-52
2022/08/19 10:16:11;;;;;;;2.50;1.67;;;;;;;;;;4995364;28;20061;-56
2022/08/19 10:18:42;;;;;;;3.03;1.90;;;;;;;;;;4995502;28;20114;-49
2022/08/19 10:21:16;;;;;;;4.25;1.92;;;;;;;;;;4995316;28;20034;-52
2022/08/19 10:23:45;;;;;;;4.40;2.10;;;;;;;;;;4995104;28;20033;-54
2022/08/19 10:26:17;;;;;;;3.78;1.90;;;;;;;;;;4993309;28;20555;-49
2022/08/19 10:28:44;;;;;;;6.88;2.65;;;;;;;;;;4992017;28;20045;-53
2022/08/19 10:31:12;;;;;;;4.35;2.20;;;;;;;;;;4991558;28;20031;-53
2022/08/19 10:33:40;;;;;;;3.92;2.05;;;;;;;;;;4991403;28;20560;-52
2022/08/19 10:36:09;;;;;;;5.20;2.63;;;;;;;;;;4993424;28;20031;-53
2022/08/19 10:38:36;;;;;;;4.40;2.85;;;;;;;;;;4989821;28;20050;-51
2022/08/19 10:41:32;;;;;;;4.60;2.75;;;;;;;;;;4994293;28;20030;-54
2022/08/19 10:44:02;;;;;;;7.63;3.05;;;;;;;;;;4977922;28;20053;-53
2022/08/19 10:46:32;;;;;;;6.30;3.40;;;;;;;;;;4994752;28;20062;-50
2022/08/19 10:48:59;;;;;;;6.72;3.10;;;;;;;;;;4994331;28;20054;-51
2022/08/19 10:54:12;;;;;;;7.55;3.80;;;;;;;;;;4995247;28;20045;-49
2022/08/19 10:56:51;;;;;;;5.90;3.25;;;;;;;;;;4994282;28;20370;-48
2022/08/19 10:59:19;;;;;;;5.68;3.38;;;;;;;;;;4994486;28;20477;-49
2022/08/19 11:01:47;;;;;;;5.65;3.15;;;;;;;;;;4994512;28;20042;-51
2022/08/19 11:04:17;;;;;;;4.85;3.22;;;;;;;;;;4994128;28;20038;-49
2022/08/19 11:06:46;;;;;;;5.50;3.15;;;;;;;;;;4994628;28;20431;-48
2022/08/19 11:09:15;;;;;;;19.15;3.78;;;;;;;;;;4994371;28;20066;-50
2022/08/19 11:11:42;;;;;;;17.08;3.90;;;;;;;;;;4994223;28;20137;-50
2022/08/19 11:14:10;;;;;;;12.95;5.25;;;;;;;;;;4994574;28;20472;-51
2022/08/19 11:16:38;;;;;;;18.25;5.28;;;;;;;;;;4992055;28;20125;-52
2022/08/19 11:19:07;;;;;;;20.17;6.00;;;;;;;;;;4994572;28;20034;-47
2022/08/19 11:21:36;;;;;;;31.60;7.40;;;;;;;;;;4994996;28;20098;-45
2022/08/19 11:24:05;;;;;;;61.72;9.30;;;;;;;;;;4994853;28;20073;-47
2022/08/19 11:26:33;;;;;;;244.27;28.08;;;;;;;;;;4994652;28;20030;-46
2022/08/19 11:29:00;;;;;;;114.47;16.17;;;;;;;;;;4994538;28;20034;-48
2022/08/19 11:31:30;;;;;;;69.85;10.80;;;;;;;;;;4994634;28;20034;-46
2022/08/19 11:33:59;;;;;;;50.95;9.77;;;;;;;;;;4994505;28;20030;-47
2022/08/19 11:36:26;;;;;;;56.28;10.80;;;;;;;;;;4994365;28;20042;-46
2022/08/19 11:38:53;;;;;;;54.70;10.85;;;;;;;;;;4994484;28;20056;-47
2022/08/19 11:41:25;;;;;;;47.80;10.20;;;;;;;;;;4994503;28;20065;-46
2022/08/19 11:43:54;;;;;;;57.25;10.55;;;;;;;;;;4994188;28;20085;-47
2022/08/19 11:46:22;;;;;;;48.58;10.15;;;;;;;;;;4994282;28;20377;-46
2022/08/19 11:48:50;;;;;;;50.38;9.90;;;;;;;;;;4993212;28;20034;-50
2022/08/19 11:51:19;;;;;;;88.78;12.70;;;;;;;;;;4991456;28;20492;-48
2022/08/19 11:53:46;;;;;;;80.32;12.35;;;;;;;;;;4994239;28;20033;-48
2022/08/19 11:56:13;;;;;;;72.50;12.25;;;;;;;;;;4993963;28;20448;-49
2022/08/19 11:58:43;;;;;;;68.13;12.43;;;;;;;;;;4994063;28;20097;-48
2022/08/19 12:01:11;;;;;;;75.10;13.05;;;;;;;;;;4993616;28;20022;-48
2022/08/19 12:03:39;;;;;;;78.00;14.15;;;;;;;;;;4993796;28;20511;-49
2022/08/19 12:06:07;;;;;;;59.70;13.02;;;;;;;;;;4992576;28;20044;-49
2022/08/19 12:08:34;;;;;;;60.60;13.27;;;;;;;;;;4993742;28;20033;-49
2022/08/19 12:11:01;;;;;;;54.17;11.88;;;;;;;;;;4993652;28;20509;-49
2022/08/19 12:13:29;;;;;;;56.60;11.05;;;;;;;;;;4993825;28;20019;-50
2022/08/19 12:15:58;;;;;;;57.67;11.07;;;;;;;;;;4993790;28;20392;-50
2022/08/19 12:18:24;;;;;;;51.97;12.02;;;;;;;;;;4993281;28;20042;-47
2022/08/19 12:20:52;;;;;;;53.75;11.27;;;;;;;;;;4993717;28;20025;-46
2022/08/19 12:23:19;;;;;;;62.00;12.07;;;;;;;;;;4993545;28;20077;-48
2022/08/19 12:25:51;;;;;;;43.63;10.65;;;;;;;;;;4993547;28;20389;-47
2022/08/19 12:28:22;;;;;;;54.03;10.70;;;;;;;;;;4993475;28;20385;-52
2022/08/19 12:30:51;;;;;;;56.10;11.30;;;;;;;;;;4993643;28;20402;-50
2022/08/19 12:33:18;;;;;;;58.35;10.75;;;;;;;;;;4993330;28;20034;-55
2022/08/19 12:35:46;;;;;;;42.13;10.80;;;;;;;;;;4992955;28;20435;-53
2022/08/19 12:38:14;;;;;;;61.33;12.02;;;;;;;;;;4993331;28;20034;-52
2022/08/19 12:40:41;;;;;;;30.35;8.02;;;;;;;;;;4993403;28;20036;-55
2022/08/19 12:43:11;;;;;;;30.30;7.63;;;;;;;;;;4993289;28;20026;-52
2022/08/19 12:45:38;;;;;;;26.58;7.70;;;;;;;;;;4993132;28;20058;-54
2022/08/19 12:48:05;;;;;;;33.92;6.90;;;;;;;;;;4993151;28;20053;-52
2022/08/19 12:50:32;;;;;;;39.13;7.82;;;;;;;;;;4993118;28;20026;-55
2022/08/19 12:52:59;;;;;;;43.35;8.20;;;;;;;;;;4993327;28;20058;-54
2022/08/19 12:55:28;;;;;;;32.75;7.78;;;;;;;;;;4992834;28;20432;-56
2022/08/19 12:57:55;;;;;;;34.28;7.95;;;;;;;;;;4992854;28;20081;-55
2022/08/19 13:00:22;;;;;;;33.95;7.22;;;;;;;;;;4991624;28;20037;-52
2022/08/19 13:02:51;;;;;;;35.83;7.20;;;;;;;;;;4992163;28;20455;-55
2022/08/19 13:05:22;;;;;;;33.28;7.05;;;;;;;;;;4991734;28;20026;-51
2022/08/19 13:07:50;;;;;;;36.20;6.72;;;;;;;;;;4992581;28;20026;-54
2022/08/19 13:10:19;;;;;;;36.53;7.30;;;;;;;;;;4991981;28;20054;-52
2022/08/19 13:12:50;;;;;;;26.45;6.28;;;;;;;;;;4993555;28;20412;-52
2022/08/19 13:15:20;;;;;;;44.78;6.78;;;;;;;;;;4996657;28;20030;-56
2022/08/19 13:17:48;;;;;;;29.73;5.25;;;;;;;;;;4996019;28;20532;-55
2022/08/19 13:20:16;;;;;;;33.60;5.05;;;;;;;;;;4996719;28;20062;-55
2022/08/19 13:22:44;;;;;;;30.95;5.88;;;;;;;;;;4995999;28;20042;-55
2022/08/19 13:25:11;;;;;;;28.80;5.18;;;;;;;;;;4996257;28;20035;-52
2022/08/19 13:27:39;;;;;;;25.25;5.10;;;;;;;;;;4996510;28;20105;-52
2022/08/19 13:33:10;;;;;;;26.92;4.43;;;;;;;;;;4996216;28;20046;-51
2022/08/19 13:35:38;;;;;;;31.80;4.90;;;;;;;;;;4996508;28;20100;-55
2022/08/19 13:38:05;;;;;;;15.43;3.85;;;;;;;;;;4994736;28;20070;-55
2022/08/19 13:40:33;;;;;;;32.03;3.70;;;;;;;;;;4996121;28;20503;-57
2022/08/19 13:43:01;;;;;;;27.73;4.40;;;;;;;;;;4996263;28;20037;-54
2022/08/19 13:45:29;;;;;;;25.65;4.80;;;;;;;;;;4996096;28;20053;-54
2022/08/19 13:47:57;;;;;;;18.10;4.93;;;;;;;;;;4995922;28;20069;-54
2022/08/19 13:50:28;;;;;;;23.20;4.47;;;;;;;;;;4996024;28;20493;-54
2022/08/19 13:52:56;;;;;;;15.35;4.13;;;;;;;;;;4996040;28;20025;-54
2022/08/19 13:55:23;;;;;;;21.40;3.47;;;;;;;;;;4996023;28;20413;-55
2022/08/19 13:57:56;;;;;;;16.83;3.60;;;;;;;;;;4995892;28;20035;-56
2022/08/19 14:00:28;;;;;;;16.65;3.70;;;;;;;;;;4995840;28;20081;-52
2022/08/19 14:02:57;;;;;;;19.25;3.60;;;;;;;;;;4995721;28;20050;-54
2022/08/19 14:05:25;;;;;;;17.10;3.40;;;;;;;;;;4995807;28;20037;-54
2022/08/19 14:07:52;;;;;;;14.35;3.08;;;;;;;;;;4995681;28;20102;-52
2022/08/19 14:10:21;;;;;;;17.17;2.80;;;;;;;;;;4995488;28;20085;-54
2022/08/19 14:12:48;;;;;;;9.88;2.03;;;;;;;;;;4995495;28;20030;-51
2022/08/19 14:15:15;;;;;;;19.30;3.28;;;;;;;;;;4995855;28;20559;-54
2022/08/19 14:17:43;;;;;;;15.20;2.90;;;;;;;;;;4995211;28;20046;-52
2022/08/19 14:20:12;;;;;;;12.15;2.58;;;;;;;;;;4995317;28;20077;-50
2022/08/19 14:22:40;;;;;;;9.32;2.50;;;;;;;;;;4995792;28;20396;-51
2022/08/19 14:25:08;;;;;;;9.52;2.80;;;;;;;;;;4994724;28;20037;-56
2022/08/19 14:27:36;;;;;;;12.95;2.42;;;;;;;;;;4995208;28;20030;-57
2022/08/19 14:30:04;;;;;;;13.95;2.22;;;;;;;;;;4995404;28;20052;-56
2022/08/19 14:32:31;;;;;;;4.28;1.85;;;;;;;;;;4994896;28;20026;-53
2022/08/19 14:34:58;;;;;;;10.02;2.15;;;;;;;;;;4995127;28;20022;-54
2022/08/19 14:37:25;;;;;;;13.20;2.20;;;;;;;;;;4995226;28;20038;-55
2022/08/19 14:39:52;;;;;;;16.77;2.00;;;;;;;;;;4994311;28;20682;-55
2022/08/19 14:42:20;;;;;;;14.65;2.92;;;;;;;;;;4995162;28;20102;-52
2022/08/19 14:44:47;;;;;;;11.07;2.58;;;;;;;;;;4995171;28;20089;-58
2022/08/19 14:47:14;;;;;;;10.80;3.38;;;;;;;;;;4994698;28;20026;-52
2022/08/19 14:49:41;;;;;;;10.50;3.47;;;;;;;;;;4995090;28;20050;-55
2022/08/19 14:52:08;;;;;;;10.98;4.07;;;;;;;;;;4995094;28;20116;-51
2022/08/19 14:54:35;;;;;;;17.90;4.55;;;;;;;;;;4993121;28;20026;-56
2022/08/19 14:57:02;;;;;;;17.00;5.15;;;;;;;;;;4994927;28;20033;-56
2022/08/19 14:59:29;;;;;;;23.30;5.50;;;;;;;;;;4995041;28;20042;-51
2022/08/19 15:01:56;;;;;;;13.13;3.92;;;;;;;;;;4994262;28;20033;-52
2022/08/19 15:04:22;;;;;;;17.00;4.80;;;;;;;;;;4994935;28;20073;-54
2022/08/19 15:06:50;;;;;;;26.25;4.90;;;;;;;;;;4994632;28;20042;-53